Airfield :
LOGIN :

Register | Disclaimer

   EN    FR    IT 

 










Legend :    VFR   Marginal VFR   IFR   Intensive IFR   Very Intensive IFR
Visi :
Ceiling :
>= 8 km
>= 3000ft
5 to 8 km
1000 to 3000 ft
1500m to 5 km
500 to 1000 ft
800 to 1500m
200 to 500 ft
< 800m
< 200 ft
Symbols :   Thunderstorms  Fog  Heavy snow  Heavy precipitations  Wind > 20 kt
SIGMETs :     Misc.  Thunderstorms  Icing  Turbulence  Mountain Waves  Volcanic Ashes






- Airport Elevation : 616 ft
- IATA code : PUF


LFBP - Pau

CURRENT METAR :
  • 062200Z AUTO 25004KT 9999 BKN008 BKN066 BKN086 13/12 Q1024 BECMG BKN070

EXPIRED METARs :
  • 062130Z AUTO 30004KT 9999 -RA FEW009 SCT066 BKN090 13/12 Q1024 NOSIG
  • 062100Z AUTO 34003KT 300V020 9999 BKN064/// BKN080/// ///TCU 13/11 Q1024 TEMPO SCT060CB
  • 062030Z AUTO 30006KT 9999 BKN064/// BKN078/// BKN098/// ///TCU 13/11 Q1024 TEMPO SCT060CB
  • 062000Z AUTO 29005KT 9999 FEW068/// BKN092/// BKN120/// ///CB 14/11 Q1023 NOSIG
  • 061930Z AUTO 29005KT 9999 BKN060/// ///CB 14/11 Q1023 BECMG BKN070

TAF AMD TAF LFBP
Valid from the 06 at 19:00 until the 07 at 18:00 UTC


061941Z 0619/0718 VRB03KT 9999 BKN070
TEMPO 0619/0622 SCT060CB
PROB40
TEMPO 0700/0708 3000 BR
PROB30
TEMPO 0703/0707 0800 FG VV///
TEMPO 0712/0718 -SHRA SCT050TCU



MET'MAP, your aeronautical weather chart ! - Copyright ORBIFLY December 2007 - Disclaimer

ORBIFLY MET'MAP TEAM :

Programming & Development : Alexandra Zaïnal
Concept & original design : Baudouin d'Aumeries
Assistance for programming : Marc-Olivier Méhu
Technical & hardware support : Manuel Goepfert

Contact : metmap@orbifly.com




SOURCES & CREDITS :

   NOAA